Time;durP1;ratioP1;P1;durP2;ratioP2;P2;SDS_P1;SDS_P2;PMS_P1;PMS_P2;Temp;Humidity;BMP_temperature;BMP_pressure;BME280_temperature;BME280_humidity;BME280_pressure;Samples;Min_cycle;Max_cycle;Signal;HPM_P1;HPM_P2
2022/04/07 00:00:13;;;;;;;5.13;3.05;;;;;;;;;;510251;28;1481;-84
2022/04/07 00:00:28;;;;;;;4.65;3.15;;;;;;;;;;510662;28;1426;-84
2022/04/07 00:00:43;;;;;;;4.03;3.20;;;;;;;;;;509129;29;1557;-84
2022/04/07 00:00:59;;;;;;;4.10;3.23;;;;;;;;;;510698;28;1494;-84
2022/04/07 00:01:15;;;;;;;4.18;3.40;;;;;;;;;;512786;28;1480;-84
2022/04/07 00:01:31;;;;;;;4.68;3.20;;;;;;;;;;513459;28;1444;-84
2022/04/07 00:01:46;;;;;;;5.03;3.20;;;;;;;;;;511939;28;1755;-84
2022/04/07 00:02:02;;;;;;;5.20;3.20;;;;;;;;;;510350;28;1545;-84
2022/04/07 00:02:17;;;;;;;5.90;3.30;;;;;;;;;;511449;28;1528;-84
2022/04/07 00:02:33;;;;;;;5.43;3.30;;;;;;;;;;511668;28;1498;-84
2022/04/07 00:02:49;;;;;;;5.65;3.20;;;;;;;;;;513813;28;1500;-84
2022/04/07 00:03:05;;;;;;;5.78;3.45;;;;;;;;;;513465;28;1839;-82
2022/04/07 00:03:20;;;;;;;4.65;3.33;;;;;;;;;;514377;28;1436;-81
2022/04/07 00:03:36;;;;;;;3.97;3.00;;;;;;;;;;513815;28;1785;-82
2022/04/07 00:03:51;;;;;;;4.38;2.92;;;;;;;;;;514912;28;1440;-82
2022/04/07 00:04:07;;;;;;;4.63;3.10;;;;;;;;;;516428;28;1901;-82
2022/04/07 00:04:23;;;;;;;4.70;3.20;;;;;;;;;;515079;28;1609;-82
2022/04/07 00:04:38;;;;;;;5.03;3.00;;;;;;;;;;514072;28;1585;-82
2022/04/07 00:04:53;;;;;;;5.17;2.87;;;;;;;;;;514501;28;1440;-82
2022/04/07 00:05:09;;;;;;;4.87;3.03;;;;;;;;;;513770;28;1662;-82
2022/04/07 00:05:25;;;;;;;4.65;3.10;;;;;;;;;;512421;28;1551;-82
2022/04/07 00:05:40;;;;;;;5.05;3.10;;;;;;;;;;512693;28;1436;-82
2022/04/07 00:05:58;;;;;;;5.13;3.20;;;;;;;;;;512317;28;1507;-82
2022/04/07 00:06:13;;;;;;;4.80;3.20;;;;;;;;;;510848;29;1413;-82
2022/04/07 00:06:29;;;;;;;5.33;3.30;;;;;;;;;;513083;28;1494;-82
2022/04/07 00:06:44;;;;;;;5.60;3.30;;;;;;;;;;515158;28;1746;-82
2022/04/07 00:06:59;;;;;;;5.13;3.37;;;;;;;;;;514558;28;1661;-82
2022/04/07 00:07:15;;;;;;;6.63;3.43;;;;;;;;;;513356;28;1535;-82
2022/04/07 00:07:30;;;;;;;6.63;3.30;;;;;;;;;;512591;28;1633;-82
2022/04/07 00:07:45;;;;;;;5.20;3.23;;;;;;;;;;512735;28;1430;-82
2022/04/07 00:08:01;;;;;;;5.85;3.45;;;;;;;;;;510529;28;1554;-82
2022/04/07 00:08:16;;;;;;;6.10;3.37;;;;;;;;;;512793;28;1374;-82
2022/04/07 00:08:31;;;;;;;5.33;3.00;;;;;;;;;;510615;29;1577;-82
2022/04/07 00:08:47;;;;;;;5.40;3.13;;;;;;;;;;508580;29;1433;-82
2022/04/07 00:09:03;;;;;;;5.20;3.50;;;;;;;;;;509097;29;1467;-82
2022/04/07 00:09:19;;;;;;;6.28;3.58;;;;;;;;;;509199;29;1498;-82
2022/04/07 00:09:34;;;;;;;5.83;3.67;;;;;;;;;;510258;29;1982;-82
2022/04/07 00:09:49;;;;;;;5.30;3.90;;;;;;;;;;511240;28;1517;-82
2022/04/07 00:10:10;;;;;;;5.90;3.65;;;;;;;;;;512479;28;1623;-82
2022/04/07 00:10:26;;;;;;;5.75;3.58;;;;;;;;;;514903;28;1519;-85
2022/04/07 00:10:41;;;;;;;6.03;3.63;;;;;;;;;;515581;28;1440;-85
2022/04/07 00:10:56;;;;;;;5.53;3.40;;;;;;;;;;516578;28;1937;-84
2022/04/07 00:11:12;;;;;;;5.47;3.20;;;;;;;;;;516319;28;1488;-85
2022/04/07 00:11:27;;;;;;;4.95;3.10;;;;;;;;;;516423;28;1731;-85
2022/04/07 00:11:43;;;;;;;4.83;3.40;;;;;;;;;;514354;28;1467;-85
2022/04/07 00:11:58;;;;;;;5.40;3.50;;;;;;;;;;512395;28;1449;-85
2022/04/07 00:12:13;;;;;;;5.20;3.50;;;;;;;;;;512013;28;1398;-86
2022/04/07 00:12:31;;;;;;;4.88;3.50;;;;;;;;;;512391;28;1441;-85
2022/04/07 00:12:47;;;;;;;5.35;3.60;;;;;;;;;;510280;29;1457;-85
2022/04/07 00:13:03;;;;;;;5.93;3.70;;;;;;;;;;510400;29;1477;-85
2022/04/07 00:13:19;;;;;;;6.60;3.45;;;;;;;;;;510479;29;1533;-85
2022/04/07 00:13:34;;;;;;;6.53;3.50;;;;;;;;;;512764;28;1524;-85
2022/04/07 00:13:50;;;;;;;6.22;3.50;;;;;;;;;;512775;28;1383;-85
2022/04/07 00:14:05;;;;;;;6.27;3.30;;;;;;;;;;513110;28;1380;-85
2022/04/07 00:14:21;;;;;;;6.38;3.38;;;;;;;;;;510509;29;1446;-85
2022/04/07 00:14:36;;;;;;;5.70;3.43;;;;;;;;;;511049;28;1454;-85
2022/04/07 00:14:52;;;;;;;5.63;3.40;;;;;;;;;;512778;28;1520;-85
2022/04/07 00:15:08;;;;;;;6.00;3.07;;;;;;;;;;513367;28;1500;-85
2022/04/07 00:15:23;;;;;;;5.07;3.10;;;;;;;;;;514503;28;1421;-84
2022/04/07 00:15:39;;;;;;;5.22;3.20;;;;;;;;;;510389;28;1460;-85
2022/04/07 00:15:56;;;;;;;5.20;3.10;;;;;;;;;;510688;28;1507;-86
2022/04/07 00:16:11;;;;;;;5.22;3.15;;;;;;;;;;510372;29;1893;-85
2022/04/07 00:16:27;;;;;;;5.73;3.13;;;;;;;;;;508828;29;1512;-85
2022/04/07 00:16:42;;;;;;;5.10;3.37;;;;;;;;;;508242;29;1464;-85
2022/04/07 00:16:59;;;;;;;4.57;3.60;;;;;;;;;;510546;29;1449;-85
2022/04/07 00:17:14;;;;;;;4.80;3.60;;;;;;;;;;510590;29;1483;-85
2022/04/07 00:17:29;;;;;;;5.00;3.40;;;;;;;;;;512321;28;1445;-85
2022/04/07 00:17:45;;;;;;;5.68;3.30;;;;;;;;;;510808;29;1464;-85
2022/04/07 00:18:02;;;;;;;5.67;3.50;;;;;;;;;;512667;28;1496;-85
2022/04/07 00:18:18;;;;;;;6.00;3.60;;;;;;;;;;510672;28;1596;-84
2022/04/07 00:18:33;;;;;;;5.23;3.50;;;;;;;;;;508768;29;1774;-85
2022/04/07 00:18:49;;;;;;;4.55;3.30;;;;;;;;;;508771;29;2059;-85
2022/04/07 00:19:05;;;;;;;4.87;3.13;;;;;;;;;;509335;29;1659;-85
2022/04/07 00:19:22;;;;;;;4.43;3.20;;;;;;;;;;508911;29;1474;-85
2022/04/07 00:19:38;;;;;;;5.00;3.15;;;;;;;;;;509445;29;1478;-85
2022/04/07 00:19:54;;;;;;;6.53;3.30;;;;;;;;;;511104;28;1673;-86
2022/04/07 00:20:10;;;;;;;5.75;3.42;;;;;;;;;;512413;28;2183;-85
2022/04/07 00:20:29;;;;;;;4.63;3.35;;;;;;;;;;514009;28;1489;-85
2022/04/07 00:20:45;;;;;;;6.03;3.38;;;;;;;;;;515542;28;1530;-85
2022/04/07 00:21:02;;;;;;;6.17;3.30;;;;;;;;;;516103;28;1477;-85
2022/04/07 00:21:24;;;;;;;5.05;3.10;;;;;;;;;;516677;28;1592;-86
2022/04/07 00:21:46;;;;;;;5.15;3.15;;;;;;;;;;518451;28;1487;-84
2022/04/07 00:22:01;;;;;;;4.78;3.33;;;;;;;;;;516425;28;1467;-85
2022/04/07 00:22:17;;;;;;;4.78;3.30;;;;;;;;;;514564;28;1502;-85
2022/04/07 00:22:34;;;;;;;5.63;3.42;;;;;;;;;;513353;28;1599;-85
2022/04/07 00:22:50;;;;;;;4.90;3.38;;;;;;;;;;512219;28;1529;-85
2022/04/07 00:23:05;;;;;;;4.35;3.33;;;;;;;;;;510027;29;1614;-85
2022/04/07 00:23:21;;;;;;;5.13;3.27;;;;;;;;;;509407;29;2546;-85
2022/04/07 00:23:39;;;;;;;5.05;3.38;;;;;;;;;;510595;28;1797;-85
2022/04/07 00:23:55;;;;;;;5.18;3.40;;;;;;;;;;513846;28;1671;-85
2022/04/07 00:24:10;;;;;;;5.80;3.30;;;;;;;;;;512208;28;1457;-85
2022/04/07 00:24:26;;;;;;;5.90;3.30;;;;;;;;;;511247;28;1378;-86
2022/04/07 00:24:42;;;;;;;5.40;3.30;;;;;;;;;;509851;28;1445;-85
2022/04/07 00:24:57;;;;;;;4.97;3.40;;;;;;;;;;508364;29;1712;-85
2022/04/07 00:25:13;;;;;;;4.68;3.40;;;;;;;;;;508544;29;1446;-85
2022/04/07 00:25:30;;;;;;;4.55;3.35;;;;;;;;;;506663;29;1458;-86
2022/04/07 00:25:45;;;;;;;4.85;3.38;;;;;;;;;;506923;29;1604;-85
2022/04/07 00:26:01;;;;;;;4.93;3.58;;;;;;;;;;509244;29;1348;-85
2022/04/07 00:26:16;;;;;;;5.40;3.47;;;;;;;;;;510479;28;1465;-85
2022/04/07 00:26:32;;;;;;;5.43;3.35;;;;;;;;;;510855;28;1485;-85
2022/04/07 00:26:48;;;;;;;4.95;3.33;;;;;;;;;;512029;28;1565;-85
2022/04/07 00:27:03;;;;;;;4.75;3.20;;;;;;;;;;511418;28;1478;-84
2022/04/07 00:27:19;;;;;;;5.30;3.40;;;;;;;;;;511948;28;1516;-85
2022/04/07 00:27:34;;;;;;;5.47;3.60;;;;;;;;;;511162;28;1494;-85
2022/04/07 00:27:49;;;;;;;5.45;3.42;;;;;;;;;;511472;28;1499;-85
2022/04/07 00:28:05;;;;;;;5.63;3.30;;;;;;;;;;512583;28;1533;-85
2022/04/07 00:28:20;;;;;;;5.07;3.40;;;;;;;;;;510752;28;1492;-85
2022/04/07 00:28:36;;;;;;;5.30;3.33;;;;;;;;;;512222;28;1656;-85
2022/04/07 00:28:52;;;;;;;6.27;3.30;;;;;;;;;;512340;28;1560;-85
2022/04/07 00:29:07;;;;;;;5.70;3.58;;;;;;;;;;514303;28;1559;-85
2022/04/07 00:29:23;;;;;;;5.20;3.60;;;;;;;;;;514252;28;1500;-84
2022/04/07 00:29:38;;;;;;;4.95;3.35;;;;;;;;;;514836;28;1943;-85
2022/04/07 00:29:54;;;;;;;4.90;3.10;;;;;;;;;;514715;28;1723;-85
2022/04/07 00:30:13;;;;;;;5.60;3.20;;;;;;;;;;513063;28;1373;-85
2022/04/07 00:30:28;;;;;;;5.85;3.35;;;;;;;;;;514502;28;1496;-85
2022/04/07 00:30:44;;;;;;;5.55;3.30;;;;;;;;;;513890;28;1425;-85
2022/04/07 00:30:59;;;;;;;5.32;3.35;;;;;;;;;;511964;28;1469;-85
2022/04/07 00:31:17;;;;;;;5.60;3.30;;;;;;;;;;510501;29;1457;-85
2022/04/07 00:31:39;;;;;;;4.93;3.10;;;;;;;;;;508650;29;1459;-85
2022/04/07 00:31:57;;;;;;;5.25;3.45;;;;;;;;;;510560;29;1485;-85
2022/04/07 00:32:13;;;;;;;5.65;3.42;;;;;;;;;;510251;29;1577;-85
2022/04/07 00:32:29;;;;;;;5.10;3.20;;;;;;;;;;510133;29;1643;-85
2022/04/07 00:32:44;;;;;;;5.57;3.20;;;;;;;;;;507465;29;1470;-86
2022/04/07 00:32:59;;;;;;;5.17;3.13;;;;;;;;;;507926;29;1425;-85
2022/04/07 00:33:15;;;;;;;5.13;3.07;;;;;;;;;;510375;29;1406;-86
2022/04/07 00:33:30;;;;;;;5.22;3.20;;;;;;;;;;508728;29;1607;-85
2022/04/07 00:33:46;;;;;;;4.57;3.30;;;;;;;;;;508744;29;1628;-85
2022/04/07 00:34:01;;;;;;;4.68;3.40;;;;;;;;;;510425;29;1473;-85
2022/04/07 00:34:17;;;;;;;5.40;3.50;;;;;;;;;;510876;28;1449;-85
2022/04/07 00:34:32;;;;;;;5.03;3.40;;;;;;;;;;512296;28;1374;-86
2022/04/07 00:34:49;;;;;;;4.87;3.37;;;;;;;;;;510782;28;1402;-85
2022/04/07 00:35:05;;;;;;;4.93;3.40;;;;;;;;;;512875;28;1484;-85
2022/04/07 00:35:22;;;;;;;5.13;3.33;;;;;;;;;;514705;28;1602;-85
2022/04/07 00:35:38;;;;;;;6.07;3.40;;;;;;;;;;513834;28;1488;-85
2022/04/07 00:35:53;;;;;;;5.32;3.20;;;;;;;;;;512136;28;1704;-85
2022/04/07 00:36:09;;;;;;;5.23;3.23;;;;;;;;;;512343;28;1442;-85
2022/04/07 00:36:24;;;;;;;5.10;3.40;;;;;;;;;;510135;29;1452;-85
2022/04/07 00:36:40;;;;;;;4.87;3.23;;;;;;;;;;510981;28;1825;-85
2022/04/07 00:36:55;;;;;;;5.05;3.25;;;;;;;;;;512832;28;1402;-84
2022/04/07 00:37:10;;;;;;;4.60;3.10;;;;;;;;;;510225;29;1501;-85
2022/04/07 00:37:26;;;;;;;4.57;3.10;;;;;;;;;;510720;28;1517;-85
2022/04/07 00:37:42;;;;;;;4.32;3.20;;;;;;;;;;510291;28;1432;-86
2022/04/07 00:37:58;;;;;;;4.47;3.30;;;;;;;;;;512151;28;1492;-86
2022/04/07 00:38:14;;;;;;;5.00;3.22;;;;;;;;;;510196;28;1454;-85
2022/04/07 00:38:29;;;;;;;5.07;3.03;;;;;;;;;;511891;28;1496;-85
2022/04/07 00:38:45;;;;;;;5.57;3.00;;;;;;;;;;511860;28;1554;-86
2022/04/07 00:39:00;;;;;;;5.67;3.20;;;;;;;;;;510950;28;1542;-85
2022/04/07 00:39:16;;;;;;;5.63;3.20;;;;;;;;;;511094;28;1664;-86
2022/04/07 00:39:31;;;;;;;5.07;3.10;;;;;;;;;;512220;28;1413;-85
2022/04/07 00:39:47;;;;;;;5.30;3.10;;;;;;;;;;511545;28;1517;-85
2022/04/07 00:40:03;;;;;;;6.32;3.15;;;;;;;;;;511292;28;1517;-85
2022/04/07 00:40:18;;;;;;;5.75;3.17;;;;;;;;;;511065;28;1517;-85
2022/04/07 00:40:34;;;;;;;4.73;3.03;;;;;;;;;;511298;28;1580;-86
2022/04/07 00:40:49;;;;;;;4.57;3.05;;;;;;;;;;511033;28;1626;-85
2022/04/07 00:41:05;;;;;;;4.87;3.27;;;;;;;;;;511926;28;1437;-85
2022/04/07 00:41:20;;;;;;;4.07;3.00;;;;;;;;;;512421;28;1520;-86
2022/04/07 00:41:37;;;;;;;4.50;2.93;;;;;;;;;;510439;28;1434;-85
2022/04/07 00:41:52;;;;;;;5.47;3.08;;;;;;;;;;512168;28;1397;-85
2022/04/07 00:42:08;;;;;;;4.83;3.00;;;;;;;;;;512276;28;1647;-85
2022/04/07 00:42:23;;;;;;;4.35;3.03;;;;;;;;;;512061;28;1442;-86
2022/04/07 00:42:49;;;;;;;4.17;3.00;;;;;;;;;;509463;29;1580;-85
2022/04/07 00:43:05;;;;;;;4.40;2.80;;;;;;;;;;507900;29;1720;-85
2022/04/07 00:43:30;;;;;;;4.77;2.90;;;;;;;;;;507610;29;1470;-85
2022/04/07 00:43:50;;;;;;;4.70;2.90;;;;;;;;;;508091;29;1450;-85
2022/04/07 00:44:08;;;;;;;4.95;2.90;;;;;;;;;;511329;28;1516;-85
2022/04/07 00:44:24;;;;;;;4.93;2.78;;;;;;;;;;511142;28;1561;-84
2022/04/07 00:44:39;;;;;;;5.47;3.00;;;;;;;;;;514193;28;1433;-85
2022/04/07 00:44:55;;;;;;;4.72;3.03;;;;;;;;;;513101;28;2102;-85
2022/04/07 00:45:10;;;;;;;4.13;2.90;;;;;;;;;;514438;28;1472;-85
2022/04/07 00:45:26;;;;;;;4.13;3.00;;;;;;;;;;514349;28;1712;-85
2022/04/07 00:45:41;;;;;;;4.13;2.97;;;;;;;;;;512841;28;1426;-85
2022/04/07 00:45:59;;;;;;;5.17;2.87;;;;;;;;;;512477;28;1503;-85
2022/04/07 00:46:14;;;;;;;5.82;3.13;;;;;;;;;;509726;28;1469;-85
2022/04/07 00:46:30;;;;;;;4.28;3.10;;;;;;;;;;510824;28;1474;-85
2022/04/07 00:46:45;;;;;;;4.10;2.90;;;;;;;;;;510292;28;1482;-86
2022/04/07 00:47:02;;;;;;;4.43;2.77;;;;;;;;;;510107;28;1457;-85
2022/04/07 00:47:18;;;;;;;4.43;2.70;;;;;;;;;;508355;29;1601;-85
2022/04/07 00:47:33;;;;;;;4.78;3.00;;;;;;;;;;508276;29;1455;-86
2022/04/07 00:47:50;;;;;;;4.40;2.80;;;;;;;;;;507404;29;1542;-85
2022/04/07 00:48:06;;;;;;;4.40;2.70;;;;;;;;;;506828;29;1575;-85
2022/04/07 00:48:21;;;;;;;4.83;2.83;;;;;;;;;;509385;29;1411;-85
2022/04/07 00:48:37;;;;;;;4.63;2.90;;;;;;;;;;510077;28;1631;-85
2022/04/07 00:48:52;;;;;;;4.55;2.72;;;;;;;;;;511549;28;1523;-85
2022/04/07 00:49:08;;;;;;;5.13;2.90;;;;;;;;;;510914;28;1518;-85
2022/04/07 00:49:24;;;;;;;4.75;2.88;;;;;;;;;;511146;28;1477;-85
2022/04/07 00:49:39;;;;;;;4.20;2.73;;;;;;;;;;512298;28;1906;-85
2022/04/07 00:49:55;;;;;;;4.55;2.80;;;;;;;;;;511087;28;1489;-85
2022/04/07 00:50:12;;;;;;;5.03;2.80;;;;;;;;;;511190;28;1576;-85
2022/04/07 00:50:27;;;;;;;5.15;2.85;;;;;;;;;;511167;28;1478;-86
2022/04/07 00:50:42;;;;;;;4.38;3.05;;;;;;;;;;511595;28;1441;-85
2022/04/07 00:50:58;;;;;;;4.07;2.80;;;;;;;;;;510350;28;1541;-86
2022/04/07 00:51:13;;;;;;;4.55;2.58;;;;;;;;;;508813;29;1681;-85
2022/04/07 00:51:29;;;;;;;5.10;2.60;;;;;;;;;;509698;28;1479;-86
2022/04/07 00:51:45;;;;;;;4.57;2.60;;;;;;;;;;509409;29;1455;-85
2022/04/07 00:52:00;;;;;;;4.67;2.60;;;;;;;;;;508483;29;1511;-85
2022/04/07 00:52:18;;;;;;;3.90;2.60;;;;;;;;;;510746;28;1445;-85
2022/04/07 00:52:34;;;;;;;4.90;2.78;;;;;;;;;;511258;28;1700;-86
2022/04/07 00:52:52;;;;;;;5.38;2.78;;;;;;;;;;511821;28;1642;-85
2022/04/07 00:53:10;;;;;;;4.97;2.70;;;;;;;;;;511546;28;1542;-86
2022/04/07 00:53:25;;;;;;;4.97;2.90;;;;;;;;;;511942;28;1421;-86
2022/04/07 00:53:40;;;;;;;4.13;2.70;;;;;;;;;;508743;29;1725;-85
2022/04/07 00:53:57;;;;;;;3.93;2.70;;;;;;;;;;509464;29;1545;-85
2022/04/07 00:54:14;;;;;;;4.60;2.60;;;;;;;;;;509591;29;1646;-85
2022/04/07 00:54:30;;;;;;;4.30;2.60;;;;;;;;;;511987;28;1476;-85
2022/04/07 00:54:46;;;;;;;3.90;2.80;;;;;;;;;;514184;28;1385;-85
2022/04/07 00:55:02;;;;;;;4.38;2.70;;;;;;;;;;512548;28;1395;-85
2022/04/07 00:55:19;;;;;;;4.03;2.60;;;;;;;;;;512439;28;1417;-85
2022/04/07 00:55:36;;;;;;;4.07;2.80;;;;;;;;;;511490;28;1418;-86
2022/04/07 00:55:51;;;;;;;4.75;2.92;;;;;;;;;;511883;28;1726;-85
2022/04/07 00:56:09;;;;;;;4.50;2.80;;;;;;;;;;512118;28;1444;-86
2022/04/07 00:56:25;;;;;;;4.45;2.70;;;;;;;;;;511768;28;1362;-86
2022/04/07 00:56:41;;;;;;;5.35;2.70;;;;;;;;;;510838;28;1501;-86
2022/04/07 00:56:59;;;;;;;5.55;2.65;;;;;;;;;;511958;28;1524;-85
2022/04/07 00:57:15;;;;;;;3.97;2.50;;;;;;;;;;511915;28;1450;-84
2022/04/07 00:57:30;;;;;;;4.18;2.63;;;;;;;;;;512160;28;1493;-85
2022/04/07 00:57:47;;;;;;;4.53;2.60;;;;;;;;;;509452;28;1438;-85
2022/04/07 00:58:02;;;;;;;4.85;2.50;;;;;;;;;;510496;28;1561;-85
2022/04/07 00:58:22;;;;;;;5.05;2.70;;;;;;;;;;510778;28;1551;-85
2022/04/07 00:58:38;;;;;;;5.45;2.90;;;;;;;;;;510108;28;1504;-85
2022/04/07 00:58:54;;;;;;;4.53;2.90;;;;;;;;;;511362;28;1421;-86
2022/04/07 00:59:15;;;;;;;3.88;2.72;;;;;;;;;;512610;28;1378;-86
2022/04/07 00:59:34;;;;;;;4.07;2.55;;;;;;;;;;512558;28;1520;-86
2022/04/07 00:59:50;;;;;;;4.00;2.60;;;;;;;;;;513965;28;1689;-85
2022/04/07 01:00:07;;;;;;;4.03;2.60;;;;;;;;;;515189;28;1479;-85
2022/04/07 01:00:22;;;;;;;4.45;2.67;;;;;;;;;;515861;28;1614;-85
2022/04/07 01:00:38;;;;;;;4.80;2.53;;;;;;;;;;515915;28;1381;-85
2022/04/07 01:00:53;;;;;;;5.15;2.67;;;;;;;;;;517627;28;1487;-85
2022/04/07 01:01:09;;;;;;;4.87;2.70;;;;;;;;;;516518;28;1431;-85
2022/04/07 01:01:28;;;;;;;5.13;2.60;;;;;;;;;;515154;28;1487;-85
2022/04/07 01:01:44;;;;;;;5.38;2.70;;;;;;;;;;514940;28;1747;-85
2022/04/07 01:02:00;;;;;;;5.97;2.60;;;;;;;;;;514998;28;1599;-86
2022/04/07 01:02:16;;;;;;;4.78;2.50;;;;;;;;;;512757;28;1459;-85
2022/04/07 01:02:31;;;;;;;4.35;2.50;;;;;;;;;;513085;28;1686;-85
2022/04/07 01:02:46;;;;;;;5.07;2.60;;;;;;;;;;511106;28;1555;-85
2022/04/07 01:03:02;;;;;;;5.67;2.60;;;;;;;;;;511643;28;1493;-85
2022/04/07 01:03:18;;;;;;;5.05;2.58;;;;;;;;;;513567;28;1472;-85
2022/04/07 01:03:34;;;;;;;4.00;2.60;;;;;;;;;;512137;28;1544;-85
2022/04/07 01:03:50;;;;;;;4.45;2.65;;;;;;;;;;512507;28;1464;-85
2022/04/07 01:04:05;;;;;;;4.60;2.70;;;;;;;;;;511558;28;1695;-85
2022/04/07 01:04:22;;;;;;;4.33;2.70;;;;;;;;;;510345;29;1525;-85
2022/04/07 01:04:38;;;;;;;4.47;2.50;;;;;;;;;;510872;28;1508;-85
2022/04/07 01:04:53;;;;;;;5.20;2.67;;;;;;;;;;512154;28;1517;-85
2022/04/07 01:05:10;;;;;;;4.63;2.60;;;;;;;;;;510652;29;1611;-85
2022/04/07 01:05:25;;;;;;;4.00;2.40;;;;;;;;;;511740;28;1536;-85
2022/04/07 01:05:41;;;;;;;3.43;2.30;;;;;;;;;;512282;28;1477;-85
2022/04/07 01:05:56;;;;;;;3.70;2.38;;;;;;;;;;511887;28;1584;-85
2022/04/07 01:06:13;;;;;;;3.23;2.30;;;;;;;;;;512566;28;1465;-85
2022/04/07 01:06:29;;;;;;;3.72;2.50;;;;;;;;;;512729;28;1492;-85
2022/04/07 01:06:47;;;;;;;5.03;2.70;;;;;;;;;;510655;28;1548;-86
2022/04/07 01:07:02;;;;;;;4.70;2.40;;;;;;;;;;513626;28;1413;-85
2022/04/07 01:07:18;;;;;;;5.00;2.40;;;;;;;;;;512138;28;1454;-86
2022/04/07 01:07:39;;;;;;;4.05;2.50;;;;;;;;;;512002;28;1571;-86
2022/04/07 01:07:55;;;;;;;3.17;2.45;;;;;;;;;;511554;28;1456;-85
2022/04/07 01:08:10;;;;;;;4.00;2.50;;;;;;;;;;513333;28;1524;-86
2022/04/07 01:08:26;;;;;;;4.57;2.60;;;;;;;;;;512567;28;1528;-85
2022/04/07 01:08:41;;;;;;;5.15;2.50;;;;;;;;;;510399;28;1506;-86
2022/04/07 01:08:57;;;;;;;5.23;2.47;;;;;;;;;;510573;29;1485;-86
2022/04/07 01:09:15;;;;;;;4.80;2.60;;;;;;;;;;511230;28;1592;-85
2022/04/07 01:09:30;;;;;;;4.55;2.60;;;;;;;;;;511672;28;1914;-85
2022/04/07 01:09:46;;;;;;;3.85;2.45;;;;;;;;;;509453;29;1457;-85
2022/04/07 01:10:01;;;;;;;3.60;2.20;;;;;;;;;;509333;29;1524;-85
2022/04/07 01:10:19;;;;;;;4.07;2.30;;;;;;;;;;508216;29;1458;-85
2022/04/07 01:10:35;;;;;;;3.78;2.20;;;;;;;;;;509197;29;1566;-86
2022/04/07 01:10:51;;;;;;;4.20;2.22;;;;;;;;;;510800;28;1454;-85
2022/04/07 01:11:07;;;;;;;4.00;2.35;;;;;;;;;;512343;28;1489;-85
2022/04/07 01:11:25;;;;;;;4.10;2.38;;;;;;;;;;512093;28;1735;-85
2022/04/07 01:11:41;;;;;;;3.95;2.30;;;;;;;;;;511850;28;1524;-85
2022/04/07 01:11:57;;;;;;;3.33;2.25;;;;;;;;;;511593;28;1445;-85
2022/04/07 01:12:12;;;;;;;3.50;2.20;;;;;;;;;;511492;28;1630;-85
2022/04/07 01:12:28;;;;;;;3.80;2.30;;;;;;;;;;510240;28;1462;-85
2022/04/07 01:12:43;;;;;;;3.53;2.30;;;;;;;;;;510099;29;1561;-85
2022/04/07 01:12:58;;;;;;;3.20;2.30;;;;;;;;;;508436;29;1475;-85
2022/04/07 01:13:15;;;;;;;4.07;2.23;;;;;;;;;;505754;29;1609;-85
2022/04/07 01:13:45;;;;;;;4.70;2.40;;;;;;;;;;506502;29;1529;-85
2022/04/07 01:14:00;;;;;;;3.67;2.30;;;;;;;;;;506514;29;1587;-85
2022/04/07 01:14:15;;;;;;;4.03;2.30;;;;;;;;;;505989;29;1661;-86
2022/04/07 01:14:31;;;;;;;4.07;2.38;;;;;;;;;;509373;28;1367;-85
2022/04/07 01:14:59;;;;;;;3.53;2.20;;;;;;;;;;510223;28;1670;-86
2022/04/07 01:15:14;;;;;;;3.28;2.20;;;;;;;;;;514258;28;1431;-85
2022/04/07 01:15:30;;;;;;;3.17;2.17;;;;;;;;;;514517;28;1551;-85
2022/04/07 01:15:45;;;;;;;3.70;2.20;;;;;;;;;;512123;28;1461;-85
2022/04/07 01:16:01;;;;;;;3.57;2.23;;;;;;;;;;509986;29;1639;-85
2022/04/07 01:16:17;;;;;;;3.75;2.10;;;;;;;;;;512456;28;1551;-85
2022/04/07 01:16:34;;;;;;;3.85;2.17;;;;;;;;;;512559;28;1570;-85
2022/04/07 01:16:49;;;;;;;3.28;2.15;;;;;;;;;;510021;28;1608;-85
2022/04/07 01:17:05;;;;;;;3.05;1.95;;;;;;;;;;509087;29;1484;-85
2022/04/07 01:17:20;;;;;;;4.10;2.20;;;;;;;;;;509246;29;1391;-85
2022/04/07 01:17:36;;;;;;;4.97;2.50;;;;;;;;;;508104;28;1641;-86
2022/04/07 01:17:52;;;;;;;4.30;2.40;;;;;;;;;;508787;29;1478;-85
2022/04/07 01:18:07;;;;;;;4.07;2.20;;;;;;;;;;508217;29;1764;-86
2022/04/07 01:18:23;;;;;;;3.63;2.20;;;;;;;;;;509262;28;1328;-85
2022/04/07 01:18:38;;;;;;;3.50;2.30;;;;;;;;;;510942;28;1474;-85
2022/04/07 01:18:56;;;;;;;3.78;2.42;;;;;;;;;;513396;28;1487;-85
2022/04/07 01:19:11;;;;;;;3.83;2.35;;;;;;;;;;514696;28;1775;-85
2022/04/07 01:19:26;;;;;;;3.13;2.07;;;;;;;;;;515083;28;1559;-85
2022/04/07 01:19:41;;;;;;;2.50;1.88;;;;;;;;;;513107;28;1634;-85
2022/04/07 01:19:57;;;;;;;3.03;1.90;;;;;;;;;;514939;28;1515;-85
2022/04/07 01:20:12;;;;;;;4.40;2.03;;;;;;;;;;512870;28;1610;-85
2022/04/07 01:20:28;;;;;;;5.15;2.28;;;;;;;;;;513290;28;1378;-85
2022/04/07 01:20:43;;;;;;;4.30;2.40;;;;;;;;;;512588;28;1835;-86
2022/04/07 01:20:59;;;;;;;3.57;2.30;;;;;;;;;;514099;28;1472;-85
2022/04/07 01:21:17;;;;;;;3.30;2.17;;;;;;;;;;512191;28;1462;-85
2022/04/07 01:21:34;;;;;;;3.60;2.08;;;;;;;;;;512530;28;1582;-85
2022/04/07 01:21:50;;;;;;;3.03;2.00;;;;;;;;;;514469;28;1445;-85
2022/04/07 01:22:05;;;;;;;3.47;2.00;;;;;;;;;;515119;28;1511;-85
2022/04/07 01:22:21;;;;;;;4.22;2.20;;;;;;;;;;514526;28;1491;-85
2022/04/07 01:22:40;;;;;;;3.45;2.20;;;;;;;;;;514481;28;1548;-85
2022/04/07 01:22:56;;;;;;;2.97;2.13;;;;;;;;;;513785;28;1417;-85
2022/04/07 01:23:12;;;;;;;3.08;2.00;;;;;;;;;;515395;28;1642;-84
2022/04/07 01:23:34;;;;;;;3.53;1.90;;;;;;;;;;514171;28;1660;-86
2022/04/07 01:24:01;;;;;;;3.28;2.10;;;;;;;;;;512628;28;1812;-85
2022/04/07 01:24:18;;;;;;;3.80;2.10;;;;;;;;;;511392;28;1417;-85
2022/04/07 01:24:34;;;;;;;3.83;2.00;;;;;;;;;;510336;29;1557;-86
2022/04/07 01:24:50;;;;;;;2.93;1.90;;;;;;;;;;508248;29;1620;-85
2022/04/07 01:25:06;;;;;;;2.88;2.00;;;;;;;;;;506334;29;1459;-85
2022/04/07 01:25:22;;;;;;;2.95;2.08;;;;;;;;;;507795;29;1666;-85
2022/04/07 01:25:38;;;;;;;3.47;2.00;;;;;;;;;;508416;29;1646;-85
2022/04/07 01:25:53;;;;;;;3.38;1.90;;;;;;;;;;510168;29;1573;-85
2022/04/07 01:26:10;;;;;;;3.03;2.00;;;;;;;;;;510805;28;1453;-86
2022/04/07 01:26:25;;;;;;;3.58;2.20;;;;;;;;;;510751;28;1431;-85
2022/04/07 01:26:42;;;;;;;3.63;2.10;;;;;;;;;;510611;29;1604;-86
2022/04/07 01:26:58;;;;;;;3.47;2.00;;;;;;;;;;510122;29;1542;-85
2022/04/07 01:27:16;;;;;;;3.33;2.05;;;;;;;;;;511235;28;1446;-85
2022/04/07 01:27:31;;;;;;;3.50;2.00;;;;;;;;;;511854;28;1522;-85
2022/04/07 01:27:49;;;;;;;4.03;1.98;;;;;;;;;;513274;28;1448;-85
2022/04/07 01:28:04;;;;;;;3.92;2.10;;;;;;;;;;512974;28;1441;-85
2022/04/07 01:28:19;;;;;;;3.17;2.00;;;;;;;;;;513977;28;1670;-85
2022/04/07 01:28:35;;;;;;;3.07;1.90;;;;;;;;;;514446;28;1462;-85
2022/04/07 01:28:51;;;;;;;3.30;1.80;;;;;;;;;;514695;28;1474;-85
2022/04/07 01:29:08;;;;;;;3.10;1.80;;;;;;;;;;513036;28;1533;-85
2022/04/07 01:29:25;;;;;;;2.90;1.90;;;;;;;;;;513167;28;1528;-86
2022/04/07 01:29:41;;;;;;;3.00;1.92;;;;;;;;;;513072;28;1910;-85
2022/04/07 01:29:57;;;;;;;3.23;1.90;;;;;;;;;;511526;28;1429;-86
2022/04/07 01:30:12;;;;;;;2.47;1.80;;;;;;;;;;511318;28;1516;-85
2022/04/07 01:30:28;;;;;;;3.20;2.00;;;;;;;;;;509768;28;1353;-86
2022/04/07 01:30:43;;;;;;;4.00;2.13;;;;;;;;;;507828;29;1569;-86
2022/04/07 01:30:59;;;;;;;3.95;2.10;;;;;;;;;;508592;29;1391;-86
2022/04/07 01:31:14;;;;;;;4.03;2.10;;;;;;;;;;509483;28;1702;-85
2022/04/07 01:31:30;;;;;;;3.88;2.10;;;;;;;;;;508816;29;1650;-85
2022/04/07 01:31:46;;;;;;;4.45;2.20;;;;;;;;;;510476;28;2045;-85
2022/04/07 01:32:09;;;;;;;3.57;2.00;;;;;;;;;;510386;28;1494;-85
2022/04/07 01:32:39;;;;;;;2.72;1.90;;;;;;;;;;510256;29;1395;-86
2022/04/07 01:32:57;;;;;;;3.35;1.70;;;;;;;;;;508696;29;1383;-85
2022/04/07 01:33:12;;;;;;;2.60;1.80;;;;;;;;;;509924;29;1445;-85
2022/04/07 01:33:29;;;;;;;2.57;1.90;;;;;;;;;;510600;28;1458;-85
2022/04/07 01:33:45;;;;;;;3.13;1.90;;;;;;;;;;509217;29;1598;-86
2022/04/07 01:34:02;;;;;;;3.85;2.00;;;;;;;;;;511037;28;1565;-86
2022/04/07 01:34:19;;;;;;;3.33;2.00;;;;;;;;;;511839;28;1579;-85
2022/04/07 01:34:35;;;;;;;2.70;1.80;;;;;;;;;;512743;28;1516;-85
2022/04/07 01:34:51;;;;;;;2.53;1.60;;;;;;;;;;512092;28;1535;-86
2022/04/07 01:35:07;;;;;;;2.47;1.70;;;;;;;;;;510443;28;1446;-85
2022/04/07 01:35:23;;;;;;;2.92;1.85;;;;;;;;;;509695;28;1525;-85
2022/04/07 01:35:38;;;;;;;3.22;1.90;;;;;;;;;;510370;28;1465;-85
2022/04/07 01:35:54;;;;;;;3.17;1.80;;;;;;;;;;509461;29;1498;-85
2022/04/07 01:36:11;;;;;;;3.35;1.73;;;;;;;;;;510018;28;1591;-85
2022/04/07 01:36:29;;;;;;;2.90;1.60;;;;;;;;;;510668;28;1442;-85
2022/04/07 01:36:48;;;;;;;3.17;1.65;;;;;;;;;;509446;29;1420;-85
2022/04/07 01:37:04;;;;;;;3.38;1.90;;;;;;;;;;512189;28;1397;-85
2022/04/07 01:37:19;;;;;;;2.97;1.80;;;;;;;;;;512253;28;1420;-86
2022/04/07 01:37:37;;;;;;;2.10;1.53;;;;;;;;;;512144;28;1509;-85
2022/04/07 01:37:54;;;;;;;2.17;1.55;;;;;;;;;;510195;29;1434;-86
2022/04/07 01:38:09;;;;;;;2.10;1.67;;;;;;;;;;511922;28;2057;-85
2022/04/07 01:38:24;;;;;;;2.20;1.80;;;;;;;;;;512049;28;1505;-85
2022/04/07 01:38:41;;;;;;;2.40;1.73;;;;;;;;;;514009;28;1508;-85
2022/04/07 01:38:58;;;;;;;2.60;1.75;;;;;;;;;;514160;28;1733;-85
2022/04/07 01:39:18;;;;;;;2.88;1.77;;;;;;;;;;515612;28;1428;-86
2022/04/07 01:39:34;;;;;;;3.13;1.77;;;;;;;;;;514259;28;1530;-86
2022/04/07 01:39:51;;;;;;;3.17;1.80;;;;;;;;;;512811;28;1404;-86
2022/04/07 01:40:10;;;;;;;3.90;1.75;;;;;;;;;;512592;28;1632;-85
2022/04/07 01:40:31;;;;;;;2.75;1.70;;;;;;;;;;512307;28;1369;-85
2022/04/07 01:40:48;;;;;;;2.13;1.63;;;;;;;;;;510671;28;1527;-87